sensor_id;sensor_type;location;lat;lon;timestamp;temperature;humidity
11615;DHT22;5863;52.832;4.758;2023-03-08T00:00:50;3.20;99.90
11615;DHT22;5863;52.832;4.758;2023-03-08T00:03:18;3.40;99.90
11615;DHT22;5863;52.832;4.758;2023-03-08T00:05:46;3.30;99.90
11615;DHT22;5863;52.832;4.758;2023-03-08T00:08:13;3.30;99.90
11615;DHT22;5863;52.832;4.758;2023-03-08T00:10:40;3.40;99.90
11615;DHT22;5863;52.832;4.758;2023-03-08T00:13:06;3.30;99.90
11615;DHT22;5863;52.832;4.758;2023-03-08T00:15:35;3.20;99.90
11615;DHT22;5863;52.832;4.758;2023-03-08T00:18:03;3.20;99.90
11615;DHT22;5863;52.832;4.758;2023-03-08T00:20:29;3.20;99.90
11615;DHT22;5863;52.832;4.758;2023-03-08T00:22:57;3.20;99.90
11615;DHT22;5863;52.832;4.758;2023-03-08T00:25:24;3.10;99.90
11615;DHT22;5863;52.832;4.758;2023-03-08T00:27:51;3.10;99.90
11615;DHT22;5863;52.832;4.758;2023-03-08T00:30:17;3.10;99.90
11615;DHT22;5863;52.832;4.758;2023-03-08T00:32:44;3.10;99.90
11615;DHT22;5863;52.832;4.758;2023-03-08T00:35:11;3.10;99.90
11615;DHT22;5863;52.832;4.758;2023-03-08T00:37:37;3.10;99.90
11615;DHT22;5863;52.832;4.758;2023-03-08T00:40:07;3.10;99.90
11615;DHT22;5863;52.832;4.758;2023-03-08T00:42:34;3.00;99.90
11615;DHT22;5863;52.832;4.758;2023-03-08T00:45:03;3.00;99.90
11615;DHT22;5863;52.832;4.758;2023-03-08T00:47:29;2.90;99.90
11615;DHT22;5863;52.832;4.758;2023-03-08T00:49:56;2.90;99.90
11615;DHT22;5863;52.832;4.758;2023-03-08T00:52:23;2.90;99.90
11615;DHT22;5863;52.832;4.758;2023-03-08T00:54:49;2.90;99.90
11615;DHT22;5863;52.832;4.758;2023-03-08T00:57:17;2.90;99.90
11615;DHT22;5863;52.832;4.758;2023-03-08T00:59:44;2.90;99.90
11615;DHT22;5863;52.832;4.758;2023-03-08T01:02:11;2.80;99.90
11615;DHT22;5863;52.832;4.758;2023-03-08T01:04:37;2.80;99.90
11615;DHT22;5863;52.832;4.758;2023-03-08T01:07:04;2.80;99.90
11615;DHT22;5863;52.832;4.758;2023-03-08T01:09:31;2.80;99.90
11615;DHT22;5863;52.832;4.758;2023-03-08T01:11:57;2.80;99.90
11615;DHT22;5863;52.832;4.758;2023-03-08T01:14:25;2.80;99.90
11615;DHT22;5863;52.832;4.758;2023-03-08T01:16:52;2.80;99.90
11615;DHT22;5863;52.832;4.758;2023-03-08T01:19:19;2.80;99.90
11615;DHT22;5863;52.832;4.758;2023-03-08T01:21:45;2.70;99.90
11615;DHT22;5863;52.832;4.758;2023-03-08T01:24:12;2.70;99.90
11615;DHT22;5863;52.832;4.758;2023-03-08T01:26:39;2.70;99.90
11615;DHT22;5863;52.832;4.758;2023-03-08T01:29:05;2.70;99.90
11615;DHT22;5863;52.832;4.758;2023-03-08T01:31:33;2.70;99.90
11615;DHT22;5863;52.832;4.758;2023-03-08T01:34:00;2.80;99.90
11615;DHT22;5863;52.832;4.758;2023-03-08T01:36:27;2.70;99.90
11615;DHT22;5863;52.832;4.758;2023-03-08T01:38:55;2.70;99.90
11615;DHT22;5863;52.832;4.758;2023-03-08T01:41:26;2.70;99.90
11615;DHT22;5863;52.832;4.758;2023-03-08T01:43:54;2.70;99.90
11615;DHT22;5863;52.832;4.758;2023-03-08T01:46:26;2.70;99.90
11615;DHT22;5863;52.832;4.758;2023-03-08T01:49:00;2.70;99.90
11615;DHT22;5863;52.832;4.758;2023-03-08T01:51:33;2.60;99.90
11615;DHT22;5863;52.832;4.758;2023-03-08T01:54:03;2.70;99.90
11615;DHT22;5863;52.832;4.758;2023-03-08T01:56:32;2.70;99.90
11615;DHT22;5863;52.832;4.758;2023-03-08T01:58:59;2.70;99.90
11615;DHT22;5863;52.832;4.758;2023-03-08T02:01:27;2.70;99.90
11615;DHT22;5863;52.832;4.758;2023-03-08T02:03:55;2.70;99.90
11615;DHT22;5863;52.832;4.758;2023-03-08T02:06:22;2.70;99.90
11615;DHT22;5863;52.832;4.758;2023-03-08T02:08:48;2.70;99.90
11615;DHT22;5863;52.832;4.758;2023-03-08T02:11:16;2.70;99.90
11615;DHT22;5863;52.832;4.758;2023-03-08T02:13:44;2.70;99.90
11615;DHT22;5863;52.832;4.758;2023-03-08T02:16:12;2.70;99.90
11615;DHT22;5863;52.832;4.758;2023-03-08T02:18:55;2.70;99.90
11615;DHT22;5863;52.832;4.758;2023-03-08T02:21:22;2.70;99.90
11615;DHT22;5863;52.832;4.758;2023-03-08T02:23:51;2.70;99.90
11615;DHT22;5863;52.832;4.758;2023-03-08T02:26:24;2.70;99.90
11615;DHT22;5863;52.832;4.758;2023-03-08T02:28:50;2.70;99.90
11615;DHT22;5863;52.832;4.758;2023-03-08T02:31:17;2.70;99.90
11615;DHT22;5863;52.832;4.758;2023-03-08T02:33:44;2.70;99.90
11615;DHT22;5863;52.832;4.758;2023-03-08T02:36:12;2.70;99.90
11615;DHT22;5863;52.832;4.758;2023-03-08T02:38:39;2.60;99.90
11615;DHT22;5863;52.832;4.758;2023-03-08T02:41:07;2.70;99.90
11615;DHT22;5863;52.832;4.758;2023-03-08T02:43:34;2.70;99.90
11615;DHT22;5863;52.832;4.758;2023-03-08T02:46:00;2.70;99.90
11615;DHT22;5863;52.832;4.758;2023-03-08T02:48:27;2.70;99.90
11615;DHT22;5863;52.832;4.758;2023-03-08T02:50:54;2.70;99.90
11615;DHT22;5863;52.832;4.758;2023-03-08T02:53:20;2.70;99.90
11615;DHT22;5863;52.832;4.758;2023-03-08T02:55:49;2.80;99.90
11615;DHT22;5863;52.832;4.758;2023-03-08T02:58:16;2.80;99.90
11615;DHT22;5863;52.832;4.758;2023-03-08T03:00:43;2.70;99.90
11615;DHT22;5863;52.832;4.758;2023-03-08T03:03:10;2.80;99.90
11615;DHT22;5863;52.832;4.758;2023-03-08T03:05:40;2.80;99.90
11615;DHT22;5863;52.832;4.758;2023-03-08T03:08:08;2.70;99.90
11615;DHT22;5863;52.832;4.758;2023-03-08T03:10:34;2.70;99.90
11615;DHT22;5863;52.832;4.758;2023-03-08T03:13:01;2.70;99.90
11615;DHT22;5863;52.832;4.758;2023-03-08T03:15:29;2.70;99.90
11615;DHT22;5863;52.832;4.758;2023-03-08T03:17:56;2.60;99.90
11615;DHT22;5863;52.832;4.758;2023-03-08T03:20:23;2.50;99.90
11615;DHT22;5863;52.832;4.758;2023-03-08T03:22:50;2.40;99.90
11615;DHT22;5863;52.832;4.758;2023-03-08T03:25:17;2.30;99.90
11615;DHT22;5863;52.832;4.758;2023-03-08T03:27:43;2.20;99.90
11615;DHT22;5863;52.832;4.758;2023-03-08T03:30:11;2.20;99.90
11615;DHT22;5863;52.832;4.758;2023-03-08T03:32:39;2.10;99.90
11615;DHT22;5863;52.832;4.758;2023-03-08T03:35:06;2.10;99.90
11615;DHT22;5863;52.832;4.758;2023-03-08T03:37:33;2.10;99.90
11615;DHT22;5863;52.832;4.758;2023-03-08T03:40:00;2.10;99.90
11615;DHT22;5863;52.832;4.758;2023-03-08T03:42:27;2.10;99.90
11615;DHT22;5863;52.832;4.758;2023-03-08T03:44:54;2.20;99.90
11615;DHT22;5863;52.832;4.758;2023-03-08T03:47:21;2.10;99.90
11615;DHT22;5863;52.832;4.758;2023-03-08T03:49:48;2.10;99.90
11615;DHT22;5863;52.832;4.758;2023-03-08T03:52:15;2.00;99.90
11615;DHT22;5863;52.832;4.758;2023-03-08T03:54:42;1.90;99.90
11615;DHT22;5863;52.832;4.758;2023-03-08T03:57:09;1.90;99.90
11615;DHT22;5863;52.832;4.758;2023-03-08T03:59:35;1.90;99.90
11615;DHT22;5863;52.832;4.758;2023-03-08T04:02:02;1.90;99.90
11615;DHT22;5863;52.832;4.758;2023-03-08T04:04:31;1.90;99.90
11615;DHT22;5863;52.832;4.758;2023-03-08T04:06:59;1.90;99.90
11615;DHT22;5863;52.832;4.758;2023-03-08T04:09:25;1.80;99.90
11615;DHT22;5863;52.832;4.758;2023-03-08T04:11:53;1.80;99.90
11615;DHT22;5863;52.832;4.758;2023-03-08T04:14:20;1.80;99.90
11615;DHT22;5863;52.832;4.758;2023-03-08T04:16:46;1.70;99.90
11615;DHT22;5863;52.832;4.758;2023-03-08T04:19:13;1.60;99.90
11615;DHT22;5863;52.832;4.758;2023-03-08T04:21:39;1.60;99.90
11615;DHT22;5863;52.832;4.758;2023-03-08T04:24:08;1.60;99.90
11615;DHT22;5863;52.832;4.758;2023-03-08T04:26:34;1.50;99.90
11615;DHT22;5863;52.832;4.758;2023-03-08T04:29:02;1.50;99.90
11615;DHT22;5863;52.832;4.758;2023-03-08T04:31:33;1.50;99.90
11615;DHT22;5863;52.832;4.758;2023-03-08T04:34:01;1.50;99.90
11615;DHT22;5863;52.832;4.758;2023-03-08T04:36:28;1.50;99.90
11615;DHT22;5863;52.832;4.758;2023-03-08T04:38:55;1.50;99.90
11615;DHT22;5863;52.832;4.758;2023-03-08T04:41:23;1.50;99.90
11615;DHT22;5863;52.832;4.758;2023-03-08T04:43:51;1.50;99.90
11615;DHT22;5863;52.832;4.758;2023-03-08T04:46:20;1.60;99.90
11615;DHT22;5863;52.832;4.758;2023-03-08T04:48:47;1.60;99.90
11615;DHT22;5863;52.832;4.758;2023-03-08T04:51:15;1.50;99.90
11615;DHT22;5863;52.832;4.758;2023-03-08T04:53:41;1.50;99.90
11615;DHT22;5863;52.832;4.758;2023-03-08T04:56:10;1.60;99.90
11615;DHT22;5863;52.832;4.758;2023-03-08T04:58:39;1.50;99.90
11615;DHT22;5863;52.832;4.758;2023-03-08T05:01:10;1.40;99.90
11615;DHT22;5863;52.832;4.758;2023-03-08T05:03:38;1.30;99.90
11615;DHT22;5863;52.832;4.758;2023-03-08T05:06:05;1.20;99.90
11615;DHT22;5863;52.832;4.758;2023-03-08T05:08:34;1.20;99.90
11615;DHT22;5863;52.832;4.758;2023-03-08T05:11:02;1.20;99.90
11615;DHT22;5863;52.832;4.758;2023-03-08T05:13:31;1.20;99.90
11615;DHT22;5863;52.832;4.758;2023-03-08T05:16:00;1.30;99.90
11615;DHT22;5863;52.832;4.758;2023-03-08T05:18:26;1.30;99.90
11615;DHT22;5863;52.832;4.758;2023-03-08T05:20:54;1.30;99.90
11615;DHT22;5863;52.832;4.758;2023-03-08T05:23:21;1.30;99.90
11615;DHT22;5863;52.832;4.758;2023-03-08T05:25:51;1.30;99.90
11615;DHT22;5863;52.832;4.758;2023-03-08T05:28:18;1.30;99.90
11615;DHT22;5863;52.832;4.758;2023-03-08T05:30:44;1.20;99.90
11615;DHT22;5863;52.832;4.758;2023-03-08T05:33:13;1.20;99.90
11615;DHT22;5863;52.832;4.758;2023-03-08T05:35:39;1.20;99.90
11615;DHT22;5863;52.832;4.758;2023-03-08T05:38:06;1.20;99.90
11615;DHT22;5863;52.832;4.758;2023-03-08T05:40:33;1.10;99.90
11615;DHT22;5863;52.832;4.758;2023-03-08T05:42:59;1.10;99.90
11615;DHT22;5863;52.832;4.758;2023-03-08T05:45:27;1.20;99.90
11615;DHT22;5863;52.832;4.758;2023-03-08T05:47:53;1.30;99.90
11615;DHT22;5863;52.832;4.758;2023-03-08T05:50:21;1.30;99.90
11615;DHT22;5863;52.832;4.758;2023-03-08T05:52:48;1.20;99.90
11615;DHT22;5863;52.832;4.758;2023-03-08T05:55:15;1.10;99.90
11615;DHT22;5863;52.832;4.758;2023-03-08T05:57:41;1.10;99.90
11615;DHT22;5863;52.832;4.758;2023-03-08T06:00:09;1.10;99.90
11615;DHT22;5863;52.832;4.758;2023-03-08T06:02:36;1.00;99.90
11615;DHT22;5863;52.832;4.758;2023-03-08T06:05:03;1.10;99.90
11615;DHT22;5863;52.832;4.758;2023-03-08T06:07:31;1.20;99.90
11615;DHT22;5863;52.832;4.758;2023-03-08T06:09:58;1.20;99.90
11615;DHT22;5863;52.832;4.758;2023-03-08T06:12:25;1.10;99.90
11615;DHT22;5863;52.832;4.758;2023-03-08T06:14:51;1.10;99.90
11615;DHT22;5863;52.832;4.758;2023-03-08T06:17:18;1.20;99.90
11615;DHT22;5863;52.832;4.758;2023-03-08T06:19:45;1.20;99.90
11615;DHT22;5863;52.832;4.758;2023-03-08T06:22:14;1.10;99.90
11615;DHT22;5863;52.832;4.758;2023-03-08T06:24:42;1.10;99.90
11615;DHT22;5863;52.832;4.758;2023-03-08T06:27:09;1.00;99.90
11615;DHT22;5863;52.832;4.758;2023-03-08T06:29:35;1.00;99.90
11615;DHT22;5863;52.832;4.758;2023-03-08T06:32:02;1.00;99.90
11615;DHT22;5863;52.832;4.758;2023-03-08T06:34:29;1.00;99.90
11615;DHT22;5863;52.832;4.758;2023-03-08T06:36:56;1.00;99.90
11615;DHT22;5863;52.832;4.758;2023-03-08T06:39:24;1.10;99.90
11615;DHT22;5863;52.832;4.758;2023-03-08T06:41:52;1.00;99.90
11615;DHT22;5863;52.832;4.758;2023-03-08T06:44:19;1.20;99.90
11615;DHT22;5863;52.832;4.758;2023-03-08T06:46:46;1.30;99.90
11615;DHT22;5863;52.832;4.758;2023-03-08T06:49:12;1.30;99.90
11615;DHT22;5863;52.832;4.758;2023-03-08T06:51:39;1.30;99.90
11615;DHT22;5863;52.832;4.758;2023-03-08T06:54:06;1.30;99.90
11615;DHT22;5863;52.832;4.758;2023-03-08T06:56:32;1.30;99.90
11615;DHT22;5863;52.832;4.758;2023-03-08T06:59:00;1.40;99.90
11615;DHT22;5863;52.832;4.758;2023-03-08T07:01:27;1.30;99.90
11615;DHT22;5863;52.832;4.758;2023-03-08T07:03:54;1.30;99.90
11615;DHT22;5863;52.832;4.758;2023-03-08T07:06:21;1.40;99.90
11615;DHT22;5863;52.832;4.758;2023-03-08T07:08:48;1.50;99.90
11615;DHT22;5863;52.832;4.758;2023-03-08T07:11:18;1.50;99.90
11615;DHT22;5863;52.832;4.758;2023-03-08T07:13:47;1.50;99.90
11615;DHT22;5863;52.832;4.758;2023-03-08T07:16:15;1.70;99.90
11615;DHT22;5863;52.832;4.758;2023-03-08T07:18:41;1.60;99.90
11615;DHT22;5863;52.832;4.758;2023-03-08T07:21:09;1.60;99.90
11615;DHT22;5863;52.832;4.758;2023-03-08T07:23:36;1.70;99.90
11615;DHT22;5863;52.832;4.758;2023-03-08T07:26:04;1.70;99.90
11615;DHT22;5863;52.832;4.758;2023-03-08T07:28:31;1.70;99.90
11615;DHT22;5863;52.832;4.758;2023-03-08T07:30:59;1.70;99.90
11615;DHT22;5863;52.832;4.758;2023-03-08T07:33:27;1.80;99.90
11615;DHT22;5863;52.832;4.758;2023-03-08T07:35:53;1.90;99.90
11615;DHT22;5863;52.832;4.758;2023-03-08T07:38:20;1.90;99.90
11615;DHT22;5863;52.832;4.758;2023-03-08T07:40:53;2.00;99.90
11615;DHT22;5863;52.832;4.758;2023-03-08T07:43:21;2.00;99.90
11615;DHT22;5863;52.832;4.758;2023-03-08T07:45:48;2.10;99.90
11615;DHT22;5863;52.832;4.758;2023-03-08T07:48:15;2.20;99.90
11615;DHT22;5863;52.832;4.758;2023-03-08T07:50:43;2.20;99.90
11615;DHT22;5863;52.832;4.758;2023-03-08T07:53:23;2.30;99.90
11615;DHT22;5863;52.832;4.758;2023-03-08T07:55:50;2.40;99.90
11615;DHT22;5863;52.832;4.758;2023-03-08T07:58:17;2.50;99.90
11615;DHT22;5863;52.832;4.758;2023-03-08T08:00:44;2.60;99.90
11615;DHT22;5863;52.832;4.758;2023-03-08T08:03:10;2.60;99.90
11615;DHT22;5863;52.832;4.758;2023-03-08T08:05:37;2.70;99.90
11615;DHT22;5863;52.832;4.758;2023-03-08T08:08:05;2.70;99.90
11615;DHT22;5863;52.832;4.758;2023-03-08T08:10:32;2.80;99.90
11615;DHT22;5863;52.832;4.758;2023-03-08T08:12:58;2.90;99.90
11615;DHT22;5863;52.832;4.758;2023-03-08T08:15:25;2.90;99.90
11615;DHT22;5863;52.832;4.758;2023-03-08T08:17:51;3.00;99.90
11615;DHT22;5863;52.832;4.758;2023-03-08T08:20:18;3.20;99.90
11615;DHT22;5863;52.832;4.758;2023-03-08T08:22:45;3.20;99.90
11615;DHT22;5863;52.832;4.758;2023-03-08T08:25:13;3.30;99.90
11615;DHT22;5863;52.832;4.758;2023-03-08T08:27:39;3.40;99.90
11615;DHT22;5863;52.832;4.758;2023-03-08T08:30:07;3.40;99.90
11615;DHT22;5863;52.832;4.758;2023-03-08T08:32:35;3.40;99.90
11615;DHT22;5863;52.832;4.758;2023-03-08T08:35:03;3.40;99.90
11615;DHT22;5863;52.832;4.758;2023-03-08T08:37:30;3.40;99.90
11615;DHT22;5863;52.832;4.758;2023-03-08T08:39:57;3.40;99.90
11615;DHT22;5863;52.832;4.758;2023-03-08T08:42:25;3.40;99.90
11615;DHT22;5863;52.832;4.758;2023-03-08T08:44:52;3.40;99.90
11615;DHT22;5863;52.832;4.758;2023-03-08T08:47:19;3.40;99.90
11615;DHT22;5863;52.832;4.758;2023-03-08T08:49:46;3.40;99.90
11615;DHT22;5863;52.832;4.758;2023-03-08T08:52:13;3.50;99.90
11615;DHT22;5863;52.832;4.758;2023-03-08T08:54:40;3.50;99.90
11615;DHT22;5863;52.832;4.758;2023-03-08T08:57:07;3.50;99.90
11615;DHT22;5863;52.832;4.758;2023-03-08T08:59:35;3.60;99.90
11615;DHT22;5863;52.832;4.758;2023-03-08T09:02:02;3.70;99.90
11615;DHT22;5863;52.832;4.758;2023-03-08T09:04:30;3.90;99.90
11615;DHT22;5863;52.832;4.758;2023-03-08T09:06:56;4.00;99.90
11615;DHT22;5863;52.832;4.758;2023-03-08T09:09:23;4.10;99.90
11615;DHT22;5863;52.832;4.758;2023-03-08T09:11:51;4.20;99.90
11615;DHT22;5863;52.832;4.758;2023-03-08T09:14:17;4.30;99.90
11615;DHT22;5863;52.832;4.758;2023-03-08T09:16:46;4.40;99.90
11615;DHT22;5863;52.832;4.758;2023-03-08T09:19:12;4.50;99.90
11615;DHT22;5863;52.832;4.758;2023-03-08T09:21:40;4.50;99.90
11615;DHT22;5863;52.832;4.758;2023-03-08T09:24:06;4.50;99.90
11615;DHT22;5863;52.832;4.758;2023-03-08T09:26:34;4.60;99.90
11615;DHT22;5863;52.832;4.758;2023-03-08T09:29:02;4.70;99.90
11615;DHT22;5863;52.832;4.758;2023-03-08T09:31:32;4.80;99.90
11615;DHT22;5863;52.832;4.758;2023-03-08T09:34:01;4.80;99.90
11615;DHT22;5863;52.832;4.758;2023-03-08T09:36:29;4.80;99.90
11615;DHT22;5863;52.832;4.758;2023-03-08T09:38:56;4.80;99.90
11615;DHT22;5863;52.832;4.758;2023-03-08T09:41:33;4.80;99.90
11615;DHT22;5863;52.832;4.758;2023-03-08T09:44:08;4.80;99.90
11615;DHT22;5863;52.832;4.758;2023-03-08T09:46:41;4.90;99.90
11615;DHT22;5863;52.832;4.758;2023-03-08T09:49:14;4.90;99.90
11615;DHT22;5863;52.832;4.758;2023-03-08T09:51:45;4.90;99.90
11615;DHT22;5863;52.832;4.758;2023-03-08T09:54:17;4.90;99.90
11615;DHT22;5863;52.832;4.758;2023-03-08T09:56:47;4.90;99.90
11615;DHT22;5863;52.832;4.758;2023-03-08T09:59:20;5.00;99.90
11615;DHT22;5863;52.832;4.758;2023-03-08T10:01:52;5.10;99.90
11615;DHT22;5863;52.832;4.758;2023-03-08T10:04:45;5.00;99.90
11615;DHT22;5863;52.832;4.758;2023-03-08T10:07:23;5.00;99.90
11615;DHT22;5863;52.832;4.758;2023-03-08T10:10:09;5.10;99.90
11615;DHT22;5863;52.832;4.758;2023-03-08T10:12:47;5.10;99.90
11615;DHT22;5863;52.832;4.758;2023-03-08T10:15:19;5.20;99.90
11615;DHT22;5863;52.832;4.758;2023-03-08T10:17:50;5.30;99.90
11615;DHT22;5863;52.832;4.758;2023-03-08T10:20:23;5.30;99.90
11615;DHT22;5863;52.832;4.758;2023-03-08T10:22:54;5.30;99.90
11615;DHT22;5863;52.832;4.758;2023-03-08T10:25:23;5.20;99.90
11615;DHT22;5863;52.832;4.758;2023-03-08T10:27:53;5.30;99.90
11615;DHT22;5863;52.832;4.758;2023-03-08T10:30:23;5.30;99.90
11615;DHT22;5863;52.832;4.758;2023-03-08T10:32:55;5.30;99.90
11615;DHT22;5863;52.832;4.758;2023-03-08T10:35:32;5.30;99.90
11615;DHT22;5863;52.832;4.758;2023-03-08T10:38:01;5.40;99.90
11615;DHT22;5863;52.832;4.758;2023-03-08T10:40:28;5.40;99.90
11615;DHT22;5863;52.832;4.758;2023-03-08T10:42:56;5.50;99.90
11615;DHT22;5863;52.832;4.758;2023-03-08T10:45:27;5.60;99.90
11615;DHT22;5863;52.832;4.758;2023-03-08T10:47:58;5.70;99.90
11615;DHT22;5863;52.832;4.758;2023-03-08T10:50:26;5.60;99.90
11615;DHT22;5863;52.832;4.758;2023-03-08T10:52:55;5.70;99.90
11615;DHT22;5863;52.832;4.758;2023-03-08T10:55:40;5.70;99.90
11615;DHT22;5863;52.832;4.758;2023-03-08T10:58:26;5.60;99.90
11615;DHT22;5863;52.832;4.758;2023-03-08T11:00:54;5.60;99.90
11615;DHT22;5863;52.832;4.758;2023-03-08T11:03:23;5.60;99.90
11615;DHT22;5863;52.832;4.758;2023-03-08T11:05:59;5.70;99.90
11615;DHT22;5863;52.832;4.758;2023-03-08T11:08:31;5.70;99.90
11615;DHT22;5863;52.832;4.758;2023-03-08T11:11:03;5.60;99.90
11615;DHT22;5863;52.832;4.758;2023-03-08T11:13:32;5.50;99.90
11615;DHT22;5863;52.832;4.758;2023-03-08T11:16:19;5.50;99.90
11615;DHT22;5863;52.832;4.758;2023-03-08T11:18:53;5.50;99.90
11615;DHT22;5863;52.832;4.758;2023-03-08T11:21:27;5.60;99.90
11615;DHT22;5863;52.832;4.758;2023-03-08T11:24:04;5.50;99.90
11615;DHT22;5863;52.832;4.758;2023-03-08T11:26:39;5.40;99.90
11615;DHT22;5863;52.832;4.758;2023-03-08T11:29:13;5.40;99.90
11615;DHT22;5863;52.832;4.758;2023-03-08T11:31:50;5.40;99.90
11615;DHT22;5863;52.832;4.758;2023-03-08T11:34:39;5.40;99.90
11615;DHT22;5863;52.832;4.758;2023-03-08T11:37:14;5.40;99.90
11615;DHT22;5863;52.832;4.758;2023-03-08T11:39:47;5.50;99.90
11615;DHT22;5863;52.832;4.758;2023-03-08T11:42:21;5.50;99.90
11615;DHT22;5863;52.832;4.758;2023-03-08T11:45:07;5.50;99.90
11615;DHT22;5863;52.832;4.758;2023-03-08T11:47:45;5.50;99.90
11615;DHT22;5863;52.832;4.758;2023-03-08T11:50:19;5.40;99.90
11615;DHT22;5863;52.832;4.758;2023-03-08T11:52:56;5.50;99.90
11615;DHT22;5863;52.832;4.758;2023-03-08T11:55:38;5.50;99.90
11615;DHT22;5863;52.832;4.758;2023-03-08T11:58:12;5.50;99.90
11615;DHT22;5863;52.832;4.758;2023-03-08T12:00:41;5.50;99.90
11615;DHT22;5863;52.832;4.758;2023-03-08T12:03:13;5.50;99.90
11615;DHT22;5863;52.832;4.758;2023-03-08T12:05:43;5.50;99.90
11615;DHT22;5863;52.832;4.758;2023-03-08T12:08:14;5.50;99.90
11615;DHT22;5863;52.832;4.758;2023-03-08T12:10:48;5.50;99.90
11615;DHT22;5863;52.832;4.758;2023-03-08T12:13:20;5.50;99.90
11615;DHT22;5863;52.832;4.758;2023-03-08T12:15:52;5.40;99.90
11615;DHT22;5863;52.832;4.758;2023-03-08T12:18:24;5.30;99.90
11615;DHT22;5863;52.832;4.758;2023-03-08T12:20:59;5.40;99.90
11615;DHT22;5863;52.832;4.758;2023-03-08T12:23:33;5.40;99.90
11615;DHT22;5863;52.832;4.758;2023-03-08T12:26:05;5.40;99.90
11615;DHT22;5863;52.832;4.758;2023-03-08T12:28:35;5.50;99.90
11615;DHT22;5863;52.832;4.758;2023-03-08T12:31:16;5.50;99.90
11615;DHT22;5863;52.832;4.758;2023-03-08T12:33:46;5.50;99.90
11615;DHT22;5863;52.832;4.758;2023-03-08T12:36:13;5.50;99.90
11615;DHT22;5863;52.832;4.758;2023-03-08T12:38:40;5.50;99.90
11615;DHT22;5863;52.832;4.758;2023-03-08T12:41:23;5.60;99.90
11615;DHT22;5863;52.832;4.758;2023-03-08T12:44:02;5.60;99.90
11615;DHT22;5863;52.832;4.758;2023-03-08T12:46:44;5.50;99.90
11615;DHT22;5863;52.832;4.758;2023-03-08T12:49:25;5.50;99.90
11615;DHT22;5863;52.832;4.758;2023-03-08T12:51:58;5.50;99.90
11615;DHT22;5863;52.832;4.758;2023-03-08T12:54:30;5.50;99.90
11615;DHT22;5863;52.832;4.758;2023-03-08T12:57:02;5.50;99.90
11615;DHT22;5863;52.832;4.758;2023-03-08T12:59:34;5.50;99.90
11615;DHT22;5863;52.832;4.758;2023-03-08T13:02:22;5.40;99.90
11615;DHT22;5863;52.832;4.758;2023-03-08T13:05:14;5.40;99.90
11615;DHT22;5863;52.832;4.758;2023-03-08T13:07:51;5.50;99.90
11615;DHT22;5863;52.832;4.758;2023-03-08T13:10:25;5.50;99.90
11615;DHT22;5863;52.832;4.758;2023-03-08T13:13:22;5.40;99.90
11615;DHT22;5863;52.832;4.758;2023-03-08T13:16:04;5.50;99.90
11615;DHT22;5863;52.832;4.758;2023-03-08T13:18:31;5.50;99.90
11615;DHT22;5863;52.832;4.758;2023-03-08T13:21:17;5.50;99.90
11615;DHT22;5863;52.832;4.758;2023-03-08T13:23:50;5.50;99.90
11615;DHT22;5863;52.832;4.758;2023-03-08T13:26:31;5.60;99.90
11615;DHT22;5863;52.832;4.758;2023-03-08T13:29:12;5.60;99.90
11615;DHT22;5863;52.832;4.758;2023-03-08T13:31:47;5.70;99.90
11615;DHT22;5863;52.832;4.758;2023-03-08T13:34:31;5.80;99.90
11615;DHT22;5863;52.832;4.758;2023-03-08T13:36:58;5.80;99.90
11615;DHT22;5863;52.832;4.758;2023-03-08T13:39:27;5.80;99.90
11615;DHT22;5863;52.832;4.758;2023-03-08T13:42:05;5.80;99.90
11615;DHT22;5863;52.832;4.758;2023-03-08T13:44:33;5.80;99.90
11615;DHT22;5863;52.832;4.758;2023-03-08T13:47:02;5.80;99.90
11615;DHT22;5863;52.832;4.758;2023-03-08T13:49:31;5.70;99.90
11615;DHT22;5863;52.832;4.758;2023-03-08T13:52:00;5.70;99.90
11615;DHT22;5863;52.832;4.758;2023-03-08T13:54:29;5.70;99.90
11615;DHT22;5863;52.832;4.758;2023-03-08T13:56:57;5.70;99.90
11615;DHT22;5863;52.832;4.758;2023-03-08T13:59:24;5.70;99.90
11615;DHT22;5863;52.832;4.758;2023-03-08T14:01:53;5.70;99.90
11615;DHT22;5863;52.832;4.758;2023-03-08T14:04:23;5.70;99.90
11615;DHT22;5863;52.832;4.758;2023-03-08T14:06:52;5.70;99.90
11615;DHT22;5863;52.832;4.758;2023-03-08T14:09:19;5.70;99.90
11615;DHT22;5863;52.832;4.758;2023-03-08T14:11:54;5.70;99.90
11615;DHT22;5863;52.832;4.758;2023-03-08T14:14:51;5.60;99.90
11615;DHT22;5863;52.832;4.758;2023-03-08T14:17:28;5.50;99.90
11615;DHT22;5863;52.832;4.758;2023-03-08T14:19:57;5.50;99.90
11615;DHT22;5863;52.832;4.758;2023-03-08T14:22:46;5.50;99.90
11615;DHT22;5863;52.832;4.758;2023-03-08T14:25:23;5.60;99.90
11615;DHT22;5863;52.832;4.758;2023-03-08T14:27:51;5.70;99.90
11615;DHT22;5863;52.832;4.758;2023-03-08T14:30:20;5.70;99.90
11615;DHT22;5863;52.832;4.758;2023-03-08T14:33:19;5.70;99.90
11615;DHT22;5863;52.832;4.758;2023-03-08T14:35:55;5.70;99.90
11615;DHT22;5863;52.832;4.758;2023-03-08T14:38:26;5.70;99.90
11615;DHT22;5863;52.832;4.758;2023-03-08T14:40:54;5.80;99.90
11615;DHT22;5863;52.832;4.758;2023-03-08T14:43:23;5.70;99.90
11615;DHT22;5863;52.832;4.758;2023-03-08T14:45:58;5.80;99.90
11615;DHT22;5863;52.832;4.758;2023-03-08T14:48:30;5.70;99.90
11615;DHT22;5863;52.832;4.758;2023-03-08T14:50:58;5.70;99.90
11615;DHT22;5863;52.832;4.758;2023-03-08T14:53:29;5.70;99.90
11615;DHT22;5863;52.832;4.758;2023-03-08T14:55:56;5.70;99.90
11615;DHT22;5863;52.832;4.758;2023-03-08T14:58:26;5.70;99.90
11615;DHT22;5863;52.832;4.758;2023-03-08T15:00:55;5.70;99.90
11615;DHT22;5863;52.832;4.758;2023-03-08T15:03:22;5.70;99.90
11615;DHT22;5863;52.832;4.758;2023-03-08T15:05:51;5.70;99.90
11615;DHT22;5863;52.832;4.758;2023-03-08T15:08:18;5.70;99.90
11615;DHT22;5863;52.832;4.758;2023-03-08T15:10:45;5.70;99.90
11615;DHT22;5863;52.832;4.758;2023-03-08T15:13:15;5.70;99.90
11615;DHT22;5863;52.832;4.758;2023-03-08T15:15:42;5.70;99.90
11615;DHT22;5863;52.832;4.758;2023-03-08T15:18:09;5.70;99.90
11615;DHT22;5863;52.832;4.758;2023-03-08T15:20:37;5.60;99.90
11615;DHT22;5863;52.832;4.758;2023-03-08T15:23:12;5.60;99.90
11615;DHT22;5863;52.832;4.758;2023-03-08T15:25:42;5.60;99.90
11615;DHT22;5863;52.832;4.758;2023-03-08T15:28:12;5.60;99.90
11615;DHT22;5863;52.832;4.758;2023-03-08T15:30:39;5.60;99.90
11615;DHT22;5863;52.832;4.758;2023-03-08T15:33:06;5.50;99.90
11615;DHT22;5863;52.832;4.758;2023-03-08T15:35:32;5.50;99.90
11615;DHT22;5863;52.832;4.758;2023-03-08T15:37:59;5.50;99.90
11615;DHT22;5863;52.832;4.758;2023-03-08T15:40:29;5.50;99.90
11615;DHT22;5863;52.832;4.758;2023-03-08T15:42:56;5.40;99.90
11615;DHT22;5863;52.832;4.758;2023-03-08T15:45:23;5.40;99.90
11615;DHT22;5863;52.832;4.758;2023-03-08T15:47:56;5.30;99.90
11615;DHT22;5863;52.832;4.758;2023-03-08T15:50:24;5.30;99.90
11615;DHT22;5863;52.832;4.758;2023-03-08T15:52:51;5.30;99.90
11615;DHT22;5863;52.832;4.758;2023-03-08T15:55:19;5.40;99.90
11615;DHT22;5863;52.832;4.758;2023-03-08T15:57:48;5.30;99.90
11615;DHT22;5863;52.832;4.758;2023-03-08T16:00:16;5.30;99.90
11615;DHT22;5863;52.832;4.758;2023-03-08T16:02:44;5.30;99.90
11615;DHT22;5863;52.832;4.758;2023-03-08T16:05:12;5.30;99.90
11615;DHT22;5863;52.832;4.758;2023-03-08T16:07:39;5.30;99.90
11615;DHT22;5863;52.832;4.758;2023-03-08T16:10:08;5.30;99.90
11615;DHT22;5863;52.832;4.758;2023-03-08T16:12:35;5.30;99.90
11615;DHT22;5863;52.832;4.758;2023-03-08T16:15:05;5.30;99.90
11615;DHT22;5863;52.832;4.758;2023-03-08T16:17:32;5.20;99.90